aviador You're here:

KM25 Decoded Metar

in
Report Time2018-01-16 19:35:00
UTC Time2018-01-16 19:30:56
Flight Rules vfr VFR
Wind320° at 06 kt
W.Rank320° ranks 22
Current wind is below 320° avg. (7.5)
Visibility9999 m
Phenomena:N/A
Clouds:N/A
Expected CloudBase > 2,800 ft AGL from Temp-Dew spread
CeilingNone
Temp-12°C
Dew Point-19°C (56% RH)
AAT-17.7°C
QNH1037 hPa
Raw Report
KM25 161935Z AUTO 32006KT 10SM CLR M12/M19 A3063 RMK AO2=

Extra information for KM25:More info

Social comments